Archival Weather

Yakutsk

Yakutsk, Russia (UEEE)

Report from: Sunday, February 5, 2023 11:00 PM JST
Current time: Wednesday, December 6, 2023 4:51 PM JST

Current weather – Weather history – Daily summaries
Weather forecast

Present weatherFog
Temperature-44.0°C (-47.2°F)
Dew point-48.0°C (-54.4°F)
Winds 1.9 kts (1 m/s, 2.2 mph) West-Southwest (250°)
Visibility2624.7 ft. (800 m)
Altimeter30.15 in.Hg (1021 mB)
Precip. events QF 1:37 AM
Relative humidity64 %
Density altitude-8,297 ft. (-2,529 m)
Remarks No significant changes expected in the next two hours
Flight conditions Low Instrument Meteorological Conditions
Raw dataUEEE 051400Z 25001MPS 0800 R23L/1700U FG NSC M44/M48 Q1021 R23L/490150 NOSIG RMK QFE757
An error has occurred. This application may no longer respond until reloaded. Reload 🗙